Terminal Aerodrome Forecast
Issued by NWS Cleveland, OH

Home | Current Version | Previous Version | Text Only | Print | Product List | Glossary Off
Versions: 1 2 3 4 5 6 7 8 9 10 11 12 13 14

000
FTUS41 KCLE 191120
TAFMFD
TAF
KMFD 191120Z 1912/2012 22005KT P6SM SKC
     FM191500 26006KT P6SM SCT045
     FM192200 29005KT P6SM SCT120 BKN250
     FM200700 VRB03KT 5SM BR SCT250
     FM201000 16003KT 1SM BR BKN250=

USA.gov is the U.S. government's official web portal to all federal, state and local government web resources and services.